Time,TemperatureF,DewpointF,PressureIn,WindDirection,WindDirectionDegrees,WindSpeedMPH,WindSpeedGustMPH,Humidity,HourlyPrecipIn,Conditions,Clouds,dailyrainin,SoftwareType,DateUTC
2015-08-28 00:01:00,74.4,71.3,30.01,N/A,-737280,0.0,0.0,90,0.00,,,0.03,Wunderground PWS Mod,2015-08-28 04:01:00,
2015-08-28 00:10:00,74.5,71.4,30.01,NNW,337,0.0,0.0,90,0.00,,,0.00,Wunderground PWS Mod,2015-08-28 04:10:00,
2015-08-28 00:16:00,74.7,71.9,30.01,NNW,337,0.0,0.0,91,0.00,,,0.00,Wunderground PWS Mod,2015-08-28 04:16:00,
2015-08-28 00:25:00,75.4,72.6,30.00,North,351,0.0,0.0,91,0.00,,,0.00,Wunderground PWS Mod,2015-08-28 04:25:00,
2015-08-28 00:30:00,75.7,72.6,29.99,N/A,-737280,0.0,0.0,90,0.00,,,0.00,Wunderground PWS Mod,2015-08-28 04:30:00,
2015-08-28 00:31:00,75.6,72.5,30.00,NNW,335,0.0,0.0,90,0.00,,,0.00,Wunderground PWS Mod,2015-08-28 04:31:00,
2015-08-28 00:36:00,76.0,72.9,29.99,North,351,0.0,0.0,90,0.00,,,0.00,Wunderground PWS Mod,2015-08-28 04:36:00,
2015-08-28 00:46:00,77.0,73.5,29.99,SE,127,1.0,2.0,89,0.00,,,0.00,Wunderground PWS Mod,2015-08-28 04:46:00,
2015-08-28 00:55:00,77.6,73.1,29.99,SE,130,2.0,2.0,86,0.00,,,0.00,Wunderground PWS Mod,2015-08-28 04:55:00,
2015-08-28 01:00:00,77.8,72.9,29.99,SE,135,3.0,6.0,85,0.00,,,0.00,Wunderground PWS Mod,2015-08-28 05:00:00,
2015-08-28 01:01:00,77.7,72.8,29.99,SE,132,2.0,4.0,85,0.00,,,0.00,Wunderground PWS Mod,2015-08-28 05:01:00,
2015-08-28 01:06:00,78.1,73.2,29.99,ESE,122,2.0,4.0,85,0.00,,,0.00,Wunderground PWS Mod,2015-08-28 05:06:00,
2015-08-28 01:15:00,78.5,73.6,29.99,SE,127,2.0,6.0,85,0.00,,,0.00,Wunderground PWS Mod,2015-08-28 05:15:00,
2015-08-28 01:25:00,78.7,73.8,29.98,SE,127,1.0,2.0,85,0.00,,,0.00,Wunderground PWS Mod,2015-08-28 05:25:00,
2015-08-28 01:30:00,78.9,74.0,29.97,SE,135,6.0,8.0,85,0.00,,,0.00,Wunderground PWS Mod,2015-08-28 05:30:00,
2015-08-28 01:31:00,78.9,74.0,29.98,ESE,114,1.0,1.0,85,0.00,,,0.00,Wunderground PWS Mod,2015-08-28 05:31:00,
2015-08-28 01:36:00,78.9,74.0,29.97,SE,135,2.0,4.0,85,0.00,,,0.00,Wunderground PWS Mod,2015-08-28 05:36:00,
2015-08-28 01:46:00,78.9,73.7,29.97,SE,133,2.0,2.0,84,0.00,,,0.00,Wunderground PWS Mod,2015-08-28 05:46:00,
2015-08-28 01:55:00,79.0,74.1,29.97,SE,141,1.0,1.0,85,0.00,,,0.00,Wunderground PWS Mod,2015-08-28 05:55:00,
2015-08-28 02:01:00,79.0,74.1,29.97,SE,135,2.0,6.0,85,0.00,,,0.00,Wunderground PWS Mod,2015-08-28 06:01:00,
2015-08-28 02:10:00,78.9,74.0,29.97,SE,135,4.0,8.0,85,0.00,,,0.00,Wunderground PWS Mod,2015-08-28 06:10:00,
2015-08-28 02:11:00,78.9,74.0,29.97,SE,136,2.0,2.0,85,0.00,,,0.00,Wunderground PWS Mod,2015-08-28 06:11:00,
2015-08-28 02:21:00,78.9,74.0,29.97,SE,133,2.0,2.0,85,0.00,,,0.00,Wunderground PWS Mod,2015-08-28 06:21:00,
2015-08-28 02:30:00,78.8,73.6,29.97,SE,135,3.0,7.0,84,0.00,,,0.00,Wunderground PWS Mod,2015-08-28 06:30:00,
2015-08-28 02:31:00,78.8,73.6,29.97,SE,143,1.0,5.0,84,0.00,,,0.00,Wunderground PWS Mod,2015-08-28 06:31:00,
2015-08-28 02:36:00,78.8,73.6,29.97,SE,143,2.0,2.0,84,0.00,,,0.00,Wunderground PWS Mod,2015-08-28 06:36:00,
2015-08-28 02:45:00,78.7,73.5,29.97,SE,127,1.0,1.0,84,0.00,,,0.00,Wunderground PWS Mod,2015-08-28 06:45:00,
2015-08-28 02:50:00,78.8,73.6,29.96,N/A,-737280,0.0,0.0,84,0.00,,,0.00,Wunderground PWS Mod,2015-08-28 06:50:00,
2015-08-28 02:51:00,78.7,73.5,29.96,SE,128,2.0,2.0,84,0.00,,,0.00,Wunderground PWS Mod,2015-08-28 06:51:00,
2015-08-28 03:01:00,78.8,73.6,29.96,SE,129,1.0,1.0,84,0.00,,,0.00,Wunderground PWS Mod,2015-08-28 07:01:00,
2015-08-28 03:10:00,78.8,73.6,29.96,SE,129,0.0,2.0,84,0.00,,,0.00,Wunderground PWS Mod,2015-08-28 07:10:00,
2015-08-28 03:15:00,78.7,73.5,29.96,SE,129,0.0,1.0,84,0.00,,,0.00,Wunderground PWS Mod,2015-08-28 07:15:00,
2015-08-28 03:20:00,78.6,73.0,29.95,N/A,-737280,0.0,0.0,83,0.00,,,0.00,Wunderground PWS Mod,2015-08-28 07:20:00,
2015-08-28 03:21:00,78.6,73.0,29.95,SE,129,1.0,1.0,83,0.00,,,0.00,Wunderground PWS Mod,2015-08-28 07:21:00,
2015-08-28 03:26:00,78.6,73.0,29.95,SE,129,0.0,2.0,83,0.00,,,0.00,Wunderground PWS Mod,2015-08-28 07:26:00,
2015-08-28 03:35:00,78.4,72.8,29.95,SE,129,0.0,1.0,83,0.00,,,0.00,Wunderground PWS Mod,2015-08-28 07:35:00,
2015-08-28 03:45:00,78.3,72.7,29.95,SE,129,0.0,0.0,83,0.00,,,0.00,Wunderground PWS Mod,2015-08-28 07:45:00,
2015-08-28 03:51:00,78.3,72.7,29.94,N/A,-737280,0.0,0.0,83,0.00,,,0.00,Wunderground PWS Mod,2015-08-28 07:51:00,
2015-08-28 03:56:00,78.2,72.6,29.94,SE,129,0.0,0.0,83,0.00,,,0.00,Wunderground PWS Mod,2015-08-28 07:56:00,
2015-08-28 04:05:00,78.1,72.5,29.94,SE,129,0.0,0.0,83,0.00,,,0.00,Wunderground PWS Mod,2015-08-28 08:05:00,
2015-08-28 04:10:00,78.0,72.4,29.94,N/A,-737280,0.0,0.0,83,0.00,,,0.00,Wunderground PWS Mod,2015-08-28 08:10:00,
2015-08-28 04:11:00,78.0,72.4,29.94,SE,129,0.0,0.0,83,0.00,,,0.00,Wunderground PWS Mod,2015-08-28 08:11:00,
2015-08-28 04:16:00,77.9,72.3,29.94,SE,129,0.0,2.0,83,0.00,,,0.00,Wunderground PWS Mod,2015-08-28 08:16:00,
2015-08-28 04:26:00,77.8,72.6,29.94,SE,129,1.0,1.0,84,0.00,,,0.00,Wunderground PWS Mod,2015-08-28 08:26:00,
2015-08-28 04:35:00,77.7,72.5,29.94,SE,129,0.0,1.0,84,0.00,,,0.00,Wunderground PWS Mod,2015-08-28 08:35:00,
2015-08-28 04:40:00,77.8,72.9,29.94,SE,135,1.0,4.0,85,0.00,,,0.00,Wunderground PWS Mod,2015-08-28 08:40:00,
2015-08-28 04:41:00,77.7,72.8,29.94,SE,129,0.0,5.0,85,0.00,,,0.00,Wunderground PWS Mod,2015-08-28 08:41:00,
2015-08-28 04:46:00,77.8,72.9,29.94,SE,129,1.0,5.0,85,0.00,,,0.00,Wunderground PWS Mod,2015-08-28 08:46:00,
2015-08-28 04:55:00,78.0,72.8,29.94,SE,129,2.0,2.0,84,0.00,,,0.00,Wunderground PWS Mod,2015-08-28 08:55:00,
2015-08-28 05:00:00,78.1,72.9,29.94,SE,135,1.0,3.0,84,0.00,,,0.00,Wunderground PWS Mod,2015-08-28 09:00:00,
2015-08-28 05:01:00,78.0,72.8,29.94,SE,129,1.0,5.0,84,0.00,,,0.00,Wunderground PWS Mod,2015-08-28 09:01:00,
2015-08-28 05:06:00,78.1,72.5,29.94,SE,129,2.0,2.0,83,0.00,,,0.00,Wunderground PWS Mod,2015-08-28 09:06:00,
2015-08-28 05:16:00,78.1,72.5,29.94,SE,129,1.0,1.0,83,0.00,,,0.00,Wunderground PWS Mod,2015-08-28 09:16:00,
2015-08-28 05:25:00,78.3,72.7,29.95,SE,136,1.0,6.0,83,0.00,,,0.00,Wunderground PWS Mod,2015-08-28 09:25:00,
2015-08-28 05:31:00,78.3,72.7,29.95,SE,135,1.0,4.0,83,0.00,,,0.00,Wunderground PWS Mod,2015-08-28 09:31:00,
2015-08-28 05:40:00,78.6,73.0,29.96,N/A,-737280,0.0,0.0,83,0.00,,,0.00,Wunderground PWS Mod,2015-08-28 09:40:00,
2015-08-28 05:41:00,78.6,73.0,29.96,SE,136,1.0,5.0,83,0.00,,,0.00,Wunderground PWS Mod,2015-08-28 09:41:00,
2015-08-28 05:46:00,78.6,73.0,29.96,SE,136,1.0,1.0,83,0.00,,,0.00,Wunderground PWS Mod,2015-08-28 09:46:00,
2015-08-28 05:55:00,78.6,73.0,29.96,SE,136,2.0,2.0,83,0.00,,,0.00,Wunderground PWS Mod,2015-08-28 09:55:00,
2015-08-28 06:00:00,78.6,73.0,29.96,SE,135,1.0,3.0,83,0.00,,,0.00,Wunderground PWS Mod,2015-08-28 10:00:00,
2015-08-28 06:05:00,78.6,73.0,29.96,SE,136,1.0,3.0,83,0.00,,,0.00,Wunderground PWS Mod,2015-08-28 10:05:00,
2015-08-28 06:15:00,78.5,72.9,29.96,SE,136,1.0,1.0,83,0.00,,,0.00,Wunderground PWS Mod,2015-08-28 10:15:00,
2015-08-28 06:20:00,78.6,73.0,29.96,SE,135,1.0,3.0,83,0.00,,,0.00,Wunderground PWS Mod,2015-08-28 10:20:00,
2015-08-28 06:30:00,78.7,73.1,29.96,SE,136,1.0,3.0,83,0.00,,,0.00,Wunderground PWS Mod,2015-08-28 10:30:00,
2015-08-28 06:35:00,78.8,73.2,29.96,SE,136,1.0,1.0,83,0.00,,,0.00,Wunderground PWS Mod,2015-08-28 10:35:00,
2015-08-28 06:45:00,78.8,73.2,29.96,SE,136,0.0,3.0,83,0.00,,,0.00,Wunderground PWS Mod,2015-08-28 10:45:00,
2015-08-28 06:50:00,78.8,73.2,29.97,SE,136,0.0,0.0,83,0.00,,,0.00,Wunderground PWS Mod,2015-08-28 10:50:00,
2015-08-28 07:00:00,78.7,73.5,29.97,N/A,-737280,0.0,0.0,84,0.00,,,0.00,Wunderground PWS Mod,2015-08-28 11:00:00,
2015-08-28 07:05:00,78.6,73.4,29.97,SE,136,0.0,0.0,84,0.00,,,0.00,Wunderground PWS Mod,2015-08-28 11:05:00,
2015-08-28 07:10:00,78.6,73.4,29.97,SE,136,0.0,0.0,84,0.00,,,0.00,Wunderground PWS Mod,2015-08-28 11:10:00,
2015-08-28 07:15:00,78.6,73.4,29.97,SE,136,0.0,0.0,84,0.00,,,0.00,Wunderground PWS Mod,2015-08-28 11:15:00,
2015-08-28 07:20:00,78.6,73.4,29.98,SE,136,0.0,0.0,84,0.00,,,0.00,Wunderground PWS Mod,2015-08-28 11:20:00,
2015-08-28 07:30:00,78.6,73.7,29.98,SE,136,0.0,1.0,85,0.00,,,0.00,Wunderground PWS Mod,2015-08-28 11:30:00,
2015-08-28 07:35:00,78.6,73.7,29.99,SE,136,0.0,1.0,85,0.00,,,0.00,Wunderground PWS Mod,2015-08-28 11:35:00,
2015-08-28 07:45:00,78.8,74.3,29.99,SE,136,0.0,0.0,86,0.00,,,0.00,Wunderground PWS Mod,2015-08-28 11:45:00,
2015-08-28 07:55:00,79.0,74.8,29.99,SE,136,0.0,0.0,87,0.00,,,0.00,Wunderground PWS Mod,2015-08-28 11:55:00,
2015-08-28 08:05:00,79.5,74.9,30.00,SE,136,0.0,0.0,86,0.00,,,0.00,Wunderground PWS Mod,2015-08-28 12:05:00,
2015-08-28 08:10:00,79.7,75.1,30.00,SE,136,0.0,0.0,86,0.00,,,0.00,Wunderground PWS Mod,2015-08-28 12:10:00,
2015-08-28 08:15:00,79.9,75.3,30.00,SE,136,0.0,0.0,86,0.00,,,0.00,Wunderground PWS Mod,2015-08-28 12:15:00,
2015-08-28 08:25:00,80.4,75.1,30.00,SE,136,0.0,2.0,84,0.00,,,0.00,Wunderground PWS Mod,2015-08-28 12:25:00,
2015-08-28 08:30:00,81.0,75.0,30.00,SE,136,1.0,1.0,82,0.00,,,0.00,Wunderground PWS Mod,2015-08-28 12:30:00,
2015-08-28 08:40:00,81.2,75.2,30.00,SE,135,1.0,3.0,82,0.00,,,0.00,Wunderground PWS Mod,2015-08-28 12:40:00,
2015-08-28 08:45:00,82.2,75.4,30.00,SE,136,1.0,1.0,80,0.00,,,0.00,Wunderground PWS Mod,2015-08-28 12:45:00,
2015-08-28 08:50:00,82.4,75.6,30.00,SE,135,0.0,1.0,80,0.00,,,0.00,Wunderground PWS Mod,2015-08-28 12:50:00,
2015-08-28 08:55:00,83.0,76.2,30.00,SE,136,0.0,1.0,80,0.00,,,0.00,Wunderground PWS Mod,2015-08-28 12:55:00,